createdAt,value
2022-12-03T00:00:56.046Z,66.48
2022-12-03T00:03:24.732Z,66.36
2022-12-03T00:05:53.063Z,66.43
2022-12-03T00:08:21.467Z,66.50
2022-12-03T00:10:50.014Z,66.41
2022-12-03T00:13:18.216Z,66.40
2022-12-03T00:15:46.658Z,66.45
2022-12-03T00:18:15.384Z,66.48
2022-12-03T00:20:43.879Z,66.45
2022-12-03T00:23:12.114Z,66.40
2022-12-03T00:25:40.616Z,66.38
2022-12-03T00:28:08.772Z,66.48
2022-12-03T00:30:37.155Z,66.36
2022-12-03T00:33:05.637Z,66.36
2022-12-03T00:35:34.198Z,66.31
2022-12-03T00:38:02.584Z,66.42
2022-12-03T00:40:31.159Z,66.48
2022-12-03T00:42:59.579Z,66.28
2022-12-03T00:45:27.817Z,66.35
2022-12-03T00:47:56.294Z,66.42
2022-12-03T00:50:24.525Z,66.19
2022-12-03T00:52:52.952Z,66.34
2022-12-03T00:55:21.833Z,66.36
2022-12-03T00:57:50.005Z,66.27
2022-12-03T01:00:18.805Z,66.11
2022-12-03T01:02:47.162Z,66.20
2022-12-03T01:05:15.615Z,66.17
2022-12-03T01:07:45.879Z,66.11
2022-12-03T01:10:15.171Z,66.19
2022-12-03T01:12:43.766Z,66.28
2022-12-03T01:15:12.110Z,66.32
2022-12-03T01:20:27.349Z,66.14
2022-12-03T01:22:55.768Z,66.10
2022-12-03T01:25:24.354Z,66.12
2022-12-03T01:27:53.581Z,66.21
2022-12-03T01:30:21.887Z,66.26
2022-12-03T01:32:50.158Z,66.15
2022-12-03T01:35:18.839Z,66.19
2022-12-03T01:37:46.965Z,66.18
2022-12-03T01:40:20.440Z,66.26
2022-12-03T01:42:48.876Z,66.25
2022-12-03T01:45:26.230Z,66.28
2022-12-03T01:47:55.292Z,66.35
2022-12-03T01:50:30.639Z,66.28
2022-12-03T01:53:01.964Z,66.41
2022-12-03T01:55:30.782Z,66.39
2022-12-03T01:58:03.338Z,66.23
2022-12-03T02:00:32.328Z,66.30
2022-12-03T02:03:03.841Z,66.14
2022-12-03T02:05:33.623Z,66.38
2022-12-03T02:08:02.066Z,66.19
2022-12-03T02:10:34.801Z,66.19
2022-12-03T02:13:10.466Z,66.40
2022-12-03T02:15:40.201Z,66.37
2022-12-03T02:18:09.534Z,66.35
2022-12-03T02:21:06.076Z,66.42
2022-12-03T02:23:52.827Z,66.39
2022-12-03T02:26:21.383Z,66.35
2022-12-03T02:28:50.021Z,66.17
2022-12-03T02:31:18.439Z,66.31
2022-12-03T02:33:46.694Z,66.35
2022-12-03T02:36:15.240Z,66.41
2022-12-03T02:38:45.367Z,66.43
2022-12-03T02:41:37.615Z,66.42
2022-12-03T02:44:07.298Z,66.32
2022-12-03T02:46:36.366Z,66.56
2022-12-03T02:49:06.209Z,66.54
2022-12-03T02:51:34.943Z,66.51
2022-12-03T02:54:03.709Z,66.53
2022-12-03T02:56:33.152Z,66.66
2022-12-03T02:59:05.113Z,66.56
2022-12-03T03:01:35.181Z,66.62
2022-12-03T03:04:04.686Z,66.54
2022-12-03T03:06:33.647Z,66.48
2022-12-03T03:09:03.072Z,66.54
2022-12-03T03:11:31.640Z,66.30
2022-12-03T03:14:02.846Z,66.33
2022-12-03T03:16:33.677Z,66.20
2022-12-03T03:19:02.426Z,66.38
2022-12-03T03:21:30.701Z,66.42
2022-12-03T03:23:59.307Z,66.37
2022-12-03T03:26:27.795Z,66.35
2022-12-03T03:28:57.701Z,66.26
2022-12-03T03:31:26.426Z,66.41
2022-12-03T03:33:54.641Z,66.40
2022-12-03T03:36:23.405Z,66.48
2022-12-03T03:38:52.427Z,66.33
2022-12-03T03:41:21.635Z,66.47
2022-12-03T03:43:50.274Z,66.23
2022-12-03T03:46:19.994Z,66.36
2022-12-03T03:48:50.318Z,66.30
2022-12-03T03:51:19.752Z,66.39
2022-12-03T03:53:49.956Z,66.42
2022-12-03T03:56:20.558Z,66.41
2022-12-03T03:58:48.848Z,66.31
2022-12-03T04:01:18.448Z,66.26
2022-12-03T04:03:46.989Z,66.50
2022-12-03T04:06:16.157Z,66.44
2022-12-03T04:08:44.653Z,66.44
2022-12-03T04:11:31.766Z,66.55
2022-12-03T04:14:00.145Z,66.65
2022-12-03T04:16:28.688Z,66.64
2022-12-03T04:18:56.994Z,66.59
2022-12-03T04:21:44.139Z,66.47
2022-12-03T04:24:12.800Z,66.70
2022-12-03T04:26:59.921Z,66.74
2022-12-03T04:29:28.285Z,66.74
2022-12-03T04:32:14.983Z,66.80
2022-12-03T04:35:02.203Z,66.55
2022-12-03T04:37:30.500Z,66.62
2022-12-03T04:39:58.868Z,66.79
2022-12-03T04:42:27.081Z,66.79
2022-12-03T04:44:55.659Z,66.84
2022-12-03T04:47:24.219Z,66.85
2022-12-03T04:49:52.704Z,66.79
2022-12-03T04:52:21.269Z,66.71
2022-12-03T04:54:49.569Z,66.77
2022-12-03T04:57:18.243Z,66.94
2022-12-03T04:59:46.732Z,66.84
2022-12-03T05:02:14.923Z,66.93
2022-12-03T05:04:44.252Z,66.91
2022-12-03T05:07:12.716Z,66.94
2022-12-03T05:09:41.147Z,66.93
2022-12-03T05:12:09.367Z,66.92
2022-12-03T05:14:37.695Z,66.73
2022-12-03T05:17:06.030Z,66.72
2022-12-03T05:19:53.313Z,66.77
2022-12-03T05:22:21.965Z,66.89
2022-12-03T05:24:50.238Z,66.84
2022-12-03T05:27:23.330Z,66.94
2022-12-03T05:29:53.141Z,66.96
2022-12-03T05:32:21.541Z,66.99
2022-12-03T05:34:50.057Z,66.82
2022-12-03T05:37:18.444Z,66.67
2022-12-03T05:39:46.980Z,66.82
2022-12-03T05:42:34.019Z,66.67
2022-12-03T05:45:03.211Z,66.85
2022-12-03T05:47:31.424Z,67.00
2022-12-03T05:49:59.550Z,67.01
2022-12-03T05:52:27.986Z,67.10
2022-12-03T05:54:56.497Z,67.20
2022-12-03T05:57:25.040Z,67.25
2022-12-03T05:59:53.285Z,67.21
2022-12-03T06:02:21.583Z,67.01
2022-12-03T06:04:49.933Z,66.88
2022-12-03T06:07:18.198Z,67.03
2022-12-03T06:09:46.744Z,67.21
2022-12-03T06:12:15.199Z,67.30
2022-12-03T06:14:43.426Z,67.28
2022-12-03T06:17:11.665Z,67.41
2022-12-03T06:19:39.885Z,67.40
2022-12-03T06:22:08.131Z,67.33
2022-12-03T06:24:36.420Z,67.41
2022-12-03T06:27:05.440Z,67.42
2022-12-03T06:29:34.054Z,67.42
2022-12-03T06:32:02.982Z,67.51
2022-12-03T06:34:31.872Z,67.50
2022-12-03T06:37:00.229Z,67.48
2022-12-03T06:39:28.463Z,67.35
2022-12-03T06:41:56.654Z,67.37
2022-12-03T06:44:25.006Z,67.44
2022-12-03T06:46:53.502Z,67.40
2022-12-03T06:49:21.681Z,67.51
2022-12-03T06:51:50.427Z,67.36
2022-12-03T06:54:18.723Z,67.05
2022-12-03T06:56:47.257Z,67.13
2022-12-03T06:59:15.754Z,67.19
2022-12-03T07:01:44.353Z,67.09
2022-12-03T07:04:13.021Z,67.28
2022-12-03T07:06:41.373Z,67.19
2022-12-03T07:09:09.614Z,67.23
2022-12-03T07:11:40.658Z,67.15
2022-12-03T07:14:11.346Z,67.05
2022-12-03T07:16:40.315Z,67.22
2022-12-03T07:19:09.849Z,67.16
2022-12-03T07:21:39.064Z,67.19
2022-12-03T07:24:07.453Z,67.15
2022-12-03T07:26:35.681Z,67.08
2022-12-03T07:29:04.436Z,67.15
2022-12-03T07:31:32.692Z,67.16
2022-12-03T07:34:02.309Z,67.22
2022-12-03T07:36:30.852Z,67.27
2022-12-03T07:38:59.223Z,67.08
2022-12-03T07:41:27.505Z,67.13
2022-12-03T07:43:55.900Z,67.19
2022-12-03T07:46:24.175Z,67.29
2022-12-03T07:48:52.431Z,67.07
2022-12-03T07:51:20.732Z,67.01
2022-12-03T07:53:48.965Z,67.05
2022-12-03T07:56:17.475Z,67.12
2022-12-03T07:58:45.783Z,67.06
2022-12-03T08:01:14.938Z,67.07
2022-12-03T08:03:43.161Z,67.07
2022-12-03T08:06:11.781Z,67.12
2022-12-03T08:08:39.976Z,67.04
2022-12-03T08:11:13.962Z,66.98
2022-12-03T08:13:42.599Z,66.93
2022-12-03T08:16:22.366Z,67.04
2022-12-03T08:18:54.402Z,67.07
2022-12-03T08:21:23.397Z,66.99
2022-12-03T08:23:52.045Z,67.13
2022-12-03T08:26:20.233Z,67.10
2022-12-03T08:28:48.669Z,67.05
2022-12-03T08:31:32.771Z,67.15
2022-12-03T08:34:20.409Z,67.00
2022-12-03T08:36:52.274Z,67.21
2022-12-03T08:39:30.785Z,67.35
2022-12-03T08:42:23.846Z,67.32
2022-12-03T08:44:53.121Z,67.46
2022-12-03T08:47:24.106Z,67.35
2022-12-03T08:50:06.149Z,67.20
2022-12-03T08:52:34.866Z,67.33
2022-12-03T08:55:32.070Z,67.30
2022-12-03T08:58:00.453Z,67.30
2022-12-03T09:00:28.880Z,67.41
2022-12-03T09:03:00.851Z,67.33
2022-12-03T09:05:32.546Z,67.53
2022-12-03T09:08:00.962Z,67.47
2022-12-03T09:10:29.320Z,67.46
2022-12-03T09:12:57.611Z,67.60
2022-12-03T09:15:25.869Z,67.57
2022-12-03T09:17:54.832Z,67.55
2022-12-03T09:20:23.219Z,67.60
2022-12-03T09:22:51.392Z,67.51
2022-12-03T09:25:19.800Z,67.64
2022-12-03T09:27:47.983Z,67.52
2022-12-03T09:30:16.496Z,67.44
2022-12-03T09:32:44.885Z,67.52
2022-12-03T09:35:13.307Z,67.34
2022-12-03T09:37:41.508Z,67.47
2022-12-03T09:40:10.962Z,67.45
2022-12-03T09:42:39.640Z,67.52
2022-12-03T09:45:14.670Z,67.35
2022-12-03T09:47:52.530Z,67.25
2022-12-03T09:50:24.227Z,67.26
2022-12-03T09:52:59.151Z,67.37
2022-12-03T09:55:29.107Z,67.45
2022-12-03T09:57:57.903Z,67.43
2022-12-03T10:00:29.558Z,67.46
2022-12-03T10:03:02.526Z,67.39
2022-12-03T10:05:31.278Z,67.26
2022-12-03T10:08:09.152Z,67.38
2022-12-03T10:10:40.319Z,67.33
2022-12-03T10:13:15.213Z,67.22
2022-12-03T10:15:43.644Z,67.17
2022-12-03T10:18:25.381Z,67.29
2022-12-03T10:20:54.238Z,67.34
2022-12-03T10:23:29.844Z,67.43
2022-12-03T10:26:03.950Z,67.34
2022-12-03T10:28:40.373Z,67.16
2022-12-03T10:31:11.859Z,67.40
2022-12-03T10:33:44.833Z,67.32
2022-12-03T10:36:21.336Z,67.29
2022-12-03T10:39:14.589Z,67.41
2022-12-03T10:41:44.761Z,67.19
2022-12-03T10:44:21.709Z,67.04
2022-12-03T10:47:10.978Z,67.30
2022-12-03T10:49:41.061Z,67.25
2022-12-03T10:52:25.867Z,67.32
2022-12-03T10:54:54.832Z,67.22
2022-12-03T10:57:24.936Z,67.21
2022-12-03T10:59:53.148Z,67.22
2022-12-03T11:02:24.201Z,67.31
2022-12-03T11:04:52.835Z,67.29
2022-12-03T11:07:22.749Z,67.20
2022-12-03T11:09:55.447Z,67.10
2022-12-03T11:12:27.274Z,67.18
2022-12-03T11:14:56.642Z,67.04
2022-12-03T11:17:25.391Z,67.11
2022-12-03T11:19:53.893Z,67.37
2022-12-03T11:22:40.159Z,67.48
2022-12-03T11:25:26.878Z,67.47
2022-12-03T11:28:10.611Z,67.62
2022-12-03T11:30:51.410Z,67.54
2022-12-03T11:33:34.195Z,67.42
2022-12-03T11:36:02.622Z,67.37
2022-12-03T11:39:00.134Z,67.51
2022-12-03T11:41:31.641Z,67.62
2022-12-03T11:44:25.022Z,67.52
2022-12-03T11:46:54.180Z,67.47
2022-12-03T11:49:38.443Z,67.53
2022-12-03T11:52:22.123Z,67.72
2022-12-03T11:54:54.913Z,67.69
2022-12-03T11:57:28.654Z,67.76
2022-12-03T12:00:04.784Z,67.67
2022-12-03T12:02:40.391Z,67.79
2022-12-03T12:05:20.535Z,67.77
2022-12-03T12:07:49.869Z,67.83
2022-12-03T12:10:42.115Z,67.83
2022-12-03T12:13:25.433Z,67.97
2022-12-03T12:15:54.912Z,67.88
2022-12-03T12:18:40.168Z,67.79
2022-12-03T12:21:42.907Z,67.94
2022-12-03T12:24:31.104Z,67.95
2022-12-03T12:27:02.824Z,67.84
2022-12-03T12:29:31.100Z,67.96
2022-12-03T12:32:15.441Z,67.78
2022-12-03T12:34:49.246Z,67.75
2022-12-03T12:37:19.984Z,67.93
2022-12-03T12:39:48.804Z,67.79
2022-12-03T12:42:33.048Z,67.97
2022-12-03T12:45:07.483Z,67.86
2022-12-03T12:47:36.969Z,67.94
2022-12-03T12:50:10.751Z,67.87
2022-12-03T12:52:50.692Z,67.91
2022-12-03T12:55:20.648Z,67.75
2022-12-03T12:57:49.166Z,67.92
2022-12-03T13:00:23.520Z,67.87
2022-12-03T13:02:59.913Z,67.82
2022-12-03T13:05:40.943Z,67.95
2022-12-03T13:08:30.822Z,67.88
2022-12-03T13:11:01.865Z,67.88
2022-12-03T13:13:41.665Z,67.94
2022-12-03T13:16:18.562Z,67.94
2022-12-03T13:18:49.786Z,67.92
2022-12-03T13:21:24.774Z,68.03
2022-12-03T13:23:57.261Z,68.05
2022-12-03T13:26:36.053Z,67.91
2022-12-03T13:29:18.604Z,68.10
2022-12-03T13:31:58.375Z,68.04
2022-12-03T13:34:31.771Z,67.95
2022-12-03T13:37:02.037Z,67.86
2022-12-03T13:39:38.592Z,68.05
2022-12-03T13:42:45.576Z,67.93
2022-12-03T13:45:14.755Z,67.66
2022-12-03T13:47:46.711Z,67.65
2022-12-03T13:50:31.428Z,67.84
2022-12-03T13:53:07.867Z,67.95
2022-12-03T13:55:39.685Z,68.09
2022-12-03T13:58:07.826Z,68.00
2022-12-03T14:00:36.615Z,68.03
2022-12-03T14:03:05.211Z,68.09
2022-12-03T14:05:33.443Z,68.15
2022-12-03T14:08:02.468Z,68.23
2022-12-03T14:10:31.128Z,68.21
2022-12-03T14:12:59.354Z,68.05
2022-12-03T14:15:27.771Z,68.11
2022-12-03T14:17:56.315Z,68.15
2022-12-03T14:20:24.534Z,68.20
2022-12-03T14:22:57.735Z,68.14
2022-12-03T14:25:27.654Z,68.23
2022-12-03T14:27:55.936Z,68.28
2022-12-03T14:30:24.167Z,68.30
2022-12-03T14:32:52.411Z,68.28
2022-12-03T14:35:20.925Z,68.23
2022-12-03T14:37:49.124Z,68.20
2022-12-03T14:40:21.472Z,68.24
2022-12-03T14:42:50.574Z,68.08
2022-12-03T14:45:20.435Z,68.31
2022-12-03T14:47:48.624Z,68.27
2022-12-03T14:50:16.883Z,68.15
2022-12-03T14:52:45.449Z,68.29
2022-12-03T14:55:13.654Z,68.20
2022-12-03T14:57:42.119Z,68.27
2022-12-03T15:00:11.524Z,68.33
2022-12-03T15:02:39.783Z,68.24
2022-12-03T15:05:08.399Z,68.12
2022-12-03T15:07:39.050Z,68.35
2022-12-03T15:10:08.127Z,68.36
2022-12-03T15:12:36.325Z,68.01
2022-12-03T15:15:04.895Z,68.26
2022-12-03T15:17:33.157Z,68.12
2022-12-03T15:20:01.368Z,68.26
2022-12-03T15:22:29.628Z,68.20
2022-12-03T15:24:57.884Z,68.30
2022-12-03T15:27:26.488Z,68.43
2022-12-03T15:29:55.160Z,68.14
2022-12-03T15:32:23.830Z,68.28
2022-12-03T15:34:52.141Z,68.32
2022-12-03T15:37:20.492Z,68.46
2022-12-03T15:39:49.104Z,68.30
2022-12-03T15:42:17.463Z,68.46
2022-12-03T15:44:47.458Z,68.52
2022-12-03T15:47:15.645Z,68.49
2022-12-03T15:49:43.906Z,68.55
2022-12-03T15:52:12.212Z,68.58
2022-12-03T15:54:40.593Z,68.59
2022-12-03T15:57:08.849Z,68.55
2022-12-03T15:59:37.173Z,68.41
2022-12-03T16:02:05.525Z,68.58
2022-12-03T16:04:33.972Z,68.44
2022-12-03T16:07:02.141Z,68.34
2022-12-03T16:09:30.495Z,68.56
2022-12-03T16:11:58.963Z,68.63
2022-12-03T16:14:27.184Z,68.63
2022-12-03T16:16:55.442Z,68.67
2022-12-03T16:19:23.547Z,68.62
2022-12-03T16:21:51.729Z,68.61
2022-12-03T16:24:19.975Z,68.69
2022-12-03T16:26:48.249Z,68.60
2022-12-03T16:29:16.842Z,68.62
2022-12-03T16:31:45.997Z,68.68
2022-12-03T16:34:14.599Z,68.76
2022-12-03T16:36:42.891Z,68.84
2022-12-03T16:39:11.892Z,68.57
2022-12-03T16:41:40.074Z,68.64
2022-12-03T16:44:09.851Z,68.81
2022-12-03T16:46:38.082Z,68.73
2022-12-03T16:49:08.122Z,68.63
2022-12-03T16:51:36.355Z,68.67
2022-12-03T16:54:04.597Z,68.77
2022-12-03T16:56:32.845Z,68.69
2022-12-03T16:59:01.082Z,68.72
2022-12-03T17:01:29.609Z,68.57
2022-12-03T17:03:57.896Z,68.65
2022-12-03T17:06:26.153Z,68.72
2022-12-03T17:08:54.572Z,68.84
2022-12-03T17:11:22.751Z,68.65
2022-12-03T17:13:51.094Z,68.72
2022-12-03T17:16:19.459Z,68.72
2022-12-03T17:18:48.011Z,68.69
2022-12-03T17:21:17.138Z,68.68
2022-12-03T17:23:48.881Z,68.62
2022-12-03T17:26:18.453Z,68.65
2022-12-03T17:28:47.034Z,68.66
2022-12-03T17:31:15.329Z,68.60
2022-12-03T17:33:43.740Z,68.61
2022-12-03T17:36:12.238Z,68.70
2022-12-03T17:38:40.746Z,68.73
2022-12-03T17:41:09.064Z,68.68
2022-12-03T17:43:37.309Z,68.69
2022-12-03T17:46:06.735Z,68.80
2022-12-03T17:48:35.606Z,68.60
2022-12-03T17:51:04.185Z,68.50
2022-12-03T17:53:32.621Z,68.35
2022-12-03T17:56:00.865Z,68.46
2022-12-03T17:58:29.182Z,68.78
2022-12-03T18:01:02.433Z,68.71
2022-12-03T18:03:31.680Z,68.67
2022-12-03T18:06:00.569Z,68.61
2022-12-03T18:08:28.744Z,68.73
2022-12-03T18:10:56.894Z,68.70
2022-12-03T18:13:25.480Z,68.73
2022-12-03T18:15:53.795Z,68.71
2022-12-03T18:18:22.044Z,68.72
2022-12-03T18:20:53.089Z,68.45
2022-12-03T18:23:21.275Z,68.57
2022-12-03T18:25:49.653Z,68.64
2022-12-03T18:28:17.833Z,68.64
2022-12-03T18:30:52.164Z,68.89
2022-12-03T18:33:21.572Z,68.77
2022-12-03T18:35:53.896Z,68.57
2022-12-03T18:38:22.842Z,68.81
2022-12-03T18:40:55.385Z,68.77
2022-12-03T18:43:25.992Z,68.89
2022-12-03T18:45:54.497Z,68.81
2022-12-03T18:48:22.736Z,68.55
2022-12-03T18:50:51.183Z,68.65
2022-12-03T18:53:19.709Z,68.79
2022-12-03T18:55:48.036Z,68.93
2022-12-03T18:58:20.048Z,69.09
2022-12-03T19:00:48.337Z,68.88
2022-12-03T19:03:16.631Z,68.99
2022-12-03T19:05:45.218Z,68.95
2022-12-03T19:08:15.153Z,68.91
2022-12-03T19:10:43.519Z,68.91
2022-12-03T19:13:12.267Z,69.04
2022-12-03T19:15:41.145Z,69.07
2022-12-03T19:18:09.364Z,69.01
2022-12-03T19:20:40.970Z,69.03
2022-12-03T19:23:09.608Z,68.77
2022-12-03T19:25:37.776Z,68.75
2022-12-03T19:28:06.343Z,68.97
2022-12-03T19:30:34.843Z,69.00
2022-12-03T19:33:03.117Z,69.08
2022-12-03T19:35:32.891Z,69.00
2022-12-03T19:38:01.335Z,69.07
2022-12-03T19:40:29.996Z,69.08
2022-12-03T19:42:58.244Z,69.03
2022-12-03T19:45:26.719Z,69.24
2022-12-03T19:47:55.193Z,69.03
2022-12-03T19:50:23.897Z,68.97
2022-12-03T19:52:52.213Z,69.08
2022-12-03T19:55:20.616Z,69.04
2022-12-03T19:57:49.007Z,69.06
2022-12-03T20:00:17.815Z,68.97
2022-12-03T20:02:49.194Z,69.06
2022-12-03T20:05:17.900Z,69.08
2022-12-03T20:07:46.167Z,69.02
2022-12-03T20:10:14.464Z,69.12
2022-12-03T20:12:42.790Z,69.09
2022-12-03T20:15:13.424Z,69.00
2022-12-03T20:17:41.614Z,69.01
2022-12-03T20:20:10.363Z,69.19
2022-12-03T20:22:38.714Z,69.02
2022-12-03T20:25:07.516Z,69.01
2022-12-03T20:27:36.254Z,68.96
2022-12-03T20:30:05.390Z,68.98
2022-12-03T20:32:39.405Z,69.00
2022-12-03T20:35:12.301Z,69.03
2022-12-03T20:37:40.648Z,68.98
2022-12-03T20:40:09.367Z,69.06
2022-12-03T20:42:37.695Z,69.02
2022-12-03T20:45:06.663Z,69.00
2022-12-03T20:47:34.893Z,69.04
2022-12-03T20:50:03.240Z,68.97
2022-12-03T20:52:31.476Z,69.02
2022-12-03T20:54:59.899Z,68.96
2022-12-03T20:57:28.206Z,69.11
2022-12-03T20:59:56.417Z,69.07
2022-12-03T21:02:25.277Z,69.03
2022-12-03T21:04:54.019Z,69.06
2022-12-03T21:07:22.217Z,68.96
2022-12-03T21:09:50.836Z,68.99
2022-12-03T21:12:19.369Z,69.05
2022-12-03T21:14:47.575Z,69.10
2022-12-03T21:17:15.866Z,68.99
2022-12-03T21:19:44.416Z,68.94
2022-12-03T21:22:12.836Z,68.73
2022-12-03T21:24:42.953Z,68.90
2022-12-03T21:27:12.791Z,68.83
2022-12-03T21:29:43.023Z,68.87
2022-12-03T21:32:11.179Z,68.96
2022-12-03T21:34:41.911Z,68.91
2022-12-03T21:37:10.203Z,68.97
2022-12-03T21:39:38.339Z,69.01
2022-12-03T21:42:19.223Z,69.01
2022-12-03T21:44:54.842Z,68.98
2022-12-03T21:47:23.225Z,68.98
2022-12-03T21:49:51.490Z,69.02
2022-12-03T21:52:19.897Z,69.08
2022-12-03T21:54:48.379Z,69.16
2022-12-03T21:57:16.711Z,69.09
2022-12-03T21:59:45.093Z,69.28
2022-12-03T22:02:13.504Z,69.17
2022-12-03T22:04:41.867Z,69.26
2022-12-03T22:07:10.048Z,69.06
2022-12-03T22:09:38.714Z,69.15
2022-12-03T22:12:07.067Z,69.25
2022-12-03T22:14:35.314Z,69.30
2022-12-03T22:17:04.149Z,69.20
2022-12-03T22:19:32.707Z,69.15
2022-12-03T22:22:00.914Z,69.33
2022-12-03T22:24:29.528Z,69.24
2022-12-03T22:26:57.854Z,69.29
2022-12-03T22:29:26.108Z,69.14
2022-12-03T22:31:54.379Z,69.27
2022-12-03T22:34:22.696Z,69.32
2022-12-03T22:36:51.129Z,69.15
2022-12-03T22:39:19.437Z,69.18
2022-12-03T22:41:47.635Z,69.26
2022-12-03T22:44:15.869Z,69.22
2022-12-03T22:46:44.405Z,69.27
2022-12-03T22:49:13.239Z,69.15
2022-12-03T22:51:45.767Z,69.30
2022-12-03T22:54:18.164Z,69.32
2022-12-03T22:56:49.385Z,69.20
2022-12-03T22:59:18.076Z,69.23
2022-12-03T23:01:46.346Z,69.10
2022-12-03T23:04:14.848Z,69.32
2022-12-03T23:06:43.745Z,69.23
2022-12-03T23:09:11.952Z,69.19
2022-12-03T23:11:40.548Z,69.23
2022-12-03T23:14:08.800Z,69.23
2022-12-03T23:16:37.255Z,69.22
2022-12-03T23:19:05.743Z,69.23
2022-12-03T23:21:34.925Z,69.36
2022-12-03T23:24:05.390Z,69.18
2022-12-03T23:26:36.397Z,69.45
2022-12-03T23:29:06.197Z,69.32
2022-12-03T23:31:34.982Z,69.31
2022-12-03T23:34:04.204Z,69.32
2022-12-03T23:36:33.515Z,69.32
2022-12-03T23:39:01.816Z,69.43
2022-12-03T23:41:30.184Z,69.33
2022-12-03T23:43:58.480Z,69.39
2022-12-03T23:46:27.604Z,69.28
2022-12-03T23:48:58.798Z,69.24
2022-12-03T23:51:27.486Z,69.23
2022-12-03T23:53:56.132Z,69.27
2022-12-03T23:56:27.548Z,69.25
2022-12-03T23:58:57.279Z,69.32
